createdAt,value
2022-12-18T00:00:22.459Z,43.85
2022-12-18T00:01:22.523Z,43.00
2022-12-18T00:02:22.425Z,43.73
2022-12-18T00:03:22.535Z,43.41
2022-12-18T00:04:22.634Z,44.36
2022-12-18T00:05:22.425Z,44.13
2022-12-18T00:06:22.412Z,44.39
2022-12-18T00:07:22.403Z,43.35
2022-12-18T00:08:22.410Z,43.41
2022-12-18T00:09:22.412Z,43.01
2022-12-18T00:10:22.375Z,43.22
2022-12-18T00:11:22.431Z,44.66
2022-12-18T00:12:22.377Z,48.16
2022-12-18T00:13:22.375Z,44.81
2022-12-18T00:14:22.379Z,43.83
2022-12-18T00:15:22.375Z,43.55
2022-12-18T00:16:22.490Z,43.93
2022-12-18T00:17:22.362Z,42.87
2022-12-18T00:18:22.346Z,44.30
2022-12-18T00:19:22.354Z,46.68
2022-12-18T00:20:22.338Z,42.93
2022-12-18T00:21:22.326Z,43.43
2022-12-18T00:22:22.340Z,43.08
2022-12-18T00:23:22.513Z,43.87
2022-12-18T00:24:22.316Z,43.56
2022-12-18T00:25:22.326Z,43.43
2022-12-18T00:26:22.301Z,45.03
2022-12-18T00:27:22.316Z,44.80
2022-12-18T00:28:22.283Z,44.39
2022-12-18T00:29:22.291Z,43.36
2022-12-18T00:30:22.298Z,45.17
2022-12-18T00:31:22.335Z,46.80
2022-12-18T00:32:22.304Z,45.34
2022-12-18T00:33:22.289Z,43.71
2022-12-18T00:34:22.252Z,45.30
2022-12-18T00:35:22.294Z,47.30
2022-12-18T00:36:22.244Z,46.77
2022-12-18T00:37:22.251Z,47.82
2022-12-18T00:38:22.241Z,45.17
2022-12-18T00:39:22.259Z,46.71
2022-12-18T00:40:22.220Z,44.34
2022-12-18T00:41:29.289Z,45.46
2022-12-18T00:42:22.235Z,43.49
2022-12-18T00:43:22.213Z,44.78
2022-12-18T00:44:22.228Z,43.83
2022-12-18T00:45:22.341Z,43.39
2022-12-18T00:46:22.203Z,43.52
2022-12-18T00:47:22.200Z,42.63
2022-12-18T00:48:22.244Z,43.75
2022-12-18T00:49:22.191Z,43.64
2022-12-18T00:50:22.199Z,43.63
2022-12-18T00:51:22.165Z,44.78
2022-12-18T00:52:22.175Z,43.35
2022-12-18T00:53:22.186Z,45.72
2022-12-18T00:54:22.177Z,44.00
2022-12-18T00:55:22.153Z,44.48
2022-12-18T00:56:22.174Z,47.01
2022-12-18T00:57:22.132Z,47.57
2022-12-18T00:58:22.143Z,46.52
2022-12-18T00:59:22.142Z,44.24
2022-12-18T01:00:22.126Z,44.29
2022-12-18T01:01:22.284Z,46.42
2022-12-18T01:02:22.247Z,45.63
2022-12-18T01:03:22.111Z,45.25
2022-12-18T01:04:22.144Z,47.54
2022-12-18T01:05:22.094Z,44.91
2022-12-18T01:06:22.098Z,45.89
2022-12-18T01:07:22.109Z,45.72
2022-12-18T01:08:22.128Z,47.03
2022-12-18T01:09:22.074Z,57.55
2022-12-18T01:10:22.076Z,49.65
2022-12-18T01:11:22.076Z,46.50
2022-12-18T01:12:22.065Z,49.47
2022-12-18T01:13:22.065Z,44.86
2022-12-18T01:14:22.097Z,45.59
2022-12-18T01:15:22.038Z,43.93
2022-12-18T01:16:22.112Z,43.75
2022-12-18T01:17:22.029Z,44.07
2022-12-18T01:18:22.050Z,44.45
2022-12-18T01:19:22.086Z,46.71
2022-12-18T01:20:22.063Z,46.93
2022-12-18T01:21:22.028Z,48.38
2022-12-18T01:22:22.023Z,45.05
2022-12-18T01:23:21.996Z,46.41
2022-12-18T01:24:22.022Z,43.76
2022-12-18T01:25:21.987Z,43.82
2022-12-18T01:26:22.003Z,43.69
2022-12-18T01:27:22.032Z,43.20
2022-12-18T01:28:21.980Z,42.85
2022-12-18T01:29:21.980Z,42.96
2022-12-18T01:30:21.986Z,43.26
2022-12-18T01:31:22.018Z,46.58
2022-12-18T01:32:21.980Z,45.67
2022-12-18T01:33:21.952Z,46.44
2022-12-18T01:34:21.957Z,44.44
2022-12-18T01:35:21.938Z,45.87
2022-12-18T01:36:21.938Z,45.40
2022-12-18T01:37:21.932Z,44.92
2022-12-18T01:38:21.943Z,44.43
2022-12-18T01:39:21.908Z,42.58
2022-12-18T01:40:21.904Z,47.60
2022-12-18T01:41:21.906Z,49.60
2022-12-18T01:42:21.917Z,45.80
2022-12-18T01:43:21.885Z,45.92
2022-12-18T01:44:21.965Z,43.12
2022-12-18T01:45:21.881Z,45.66
2022-12-18T01:46:21.966Z,45.65
2022-12-18T01:47:21.875Z,43.78
2022-12-18T01:48:21.862Z,44.64
2022-12-18T01:49:21.861Z,44.59
2022-12-18T01:50:21.881Z,44.30
2022-12-18T01:51:21.923Z,44.08
2022-12-18T01:52:21.942Z,44.10
2022-12-18T01:53:21.830Z,44.38
2022-12-18T01:54:21.857Z,43.34
2022-12-18T01:55:21.849Z,45.16
2022-12-18T01:56:21.841Z,44.48
2022-12-18T01:57:21.811Z,45.14
2022-12-18T01:58:21.814Z,43.66
2022-12-18T01:59:21.809Z,43.29
2022-12-18T02:00:21.803Z,43.72
2022-12-18T02:01:21.928Z,44.99
2022-12-18T02:02:43.862Z,44.80
2022-12-18T02:05:48.247Z,43.37
2022-12-18T02:06:48.181Z,45.84
2022-12-18T02:07:48.171Z,45.70
2022-12-18T02:08:48.158Z,44.99
2022-12-18T02:09:48.165Z,45.88
2022-12-18T02:10:48.176Z,44.37
2022-12-18T02:11:48.359Z,44.58
2022-12-18T02:12:48.292Z,46.54
2022-12-18T02:13:48.160Z,43.43
2022-12-18T02:14:48.130Z,43.85
2022-12-18T02:15:48.131Z,45.06
2022-12-18T02:16:48.237Z,45.09
2022-12-18T02:17:48.102Z,46.26
2022-12-18T02:18:48.273Z,44.53
2022-12-18T02:19:48.104Z,43.80
2022-12-18T02:21:11.850Z,43.97
2022-12-18T02:21:48.116Z,45.07
2022-12-18T02:22:48.084Z,45.86
2022-12-18T02:23:49.097Z,51.37
2022-12-18T02:24:48.079Z,48.44
2022-12-18T02:25:48.070Z,45.08
2022-12-18T02:26:48.066Z,43.60
2022-12-18T02:27:48.051Z,44.68
2022-12-18T02:28:48.163Z,45.23
2022-12-18T02:29:52.921Z,47.32
2022-12-18T02:30:49.086Z,45.21
2022-12-18T02:31:48.061Z,46.12
2022-12-18T02:32:48.033Z,44.92
2022-12-18T02:33:48.023Z,44.97
2022-12-18T02:34:48.299Z,43.02
2022-12-18T02:35:48.026Z,47.98
2022-12-18T02:36:48.009Z,46.37
2022-12-18T02:37:47.996Z,46.14
2022-12-18T02:38:48.016Z,46.11
2022-12-18T02:39:47.990Z,44.16
2022-12-18T02:40:48.003Z,43.07
2022-12-18T02:41:47.989Z,45.00
2022-12-18T02:42:47.961Z,45.60
2022-12-18T02:43:47.976Z,46.27
2022-12-18T02:44:48.093Z,46.48
2022-12-18T02:45:48.164Z,44.93
2022-12-18T02:46:47.960Z,46.44
2022-12-18T02:47:47.944Z,47.96
2022-12-18T02:48:47.934Z,45.65
2022-12-18T02:49:47.948Z,42.41
2022-12-18T02:50:47.933Z,44.06
2022-12-18T02:51:47.932Z,43.21
2022-12-18T02:52:47.917Z,43.95
2022-12-18T02:53:47.909Z,44.19
2022-12-18T02:54:47.925Z,43.99
2022-12-18T02:55:47.914Z,45.81
2022-12-18T02:56:47.884Z,44.20
2022-12-18T02:57:47.900Z,45.43
2022-12-18T03:01:14.456Z,43.71
2022-12-18T03:02:14.483Z,44.96
2022-12-18T03:03:14.328Z,46.94
2022-12-18T03:04:14.249Z,45.57
2022-12-18T03:05:14.284Z,47.20
2022-12-18T03:06:14.678Z,47.10
2022-12-18T03:07:14.253Z,45.75
2022-12-18T03:08:14.240Z,46.41
2022-12-18T03:09:14.264Z,43.20
2022-12-18T03:10:14.217Z,45.66
2022-12-18T03:11:14.231Z,45.09
2022-12-18T03:12:14.217Z,45.23
2022-12-18T03:13:14.212Z,45.38
2022-12-18T03:14:14.260Z,47.30
2022-12-18T03:15:17.639Z,45.27
2022-12-18T03:16:14.302Z,43.78
2022-12-18T03:17:14.202Z,46.60
2022-12-18T03:18:14.172Z,53.11
2022-12-18T03:19:14.267Z,52.16
2022-12-18T03:20:14.187Z,45.27
2022-12-18T03:21:14.168Z,48.50
2022-12-18T03:22:14.167Z,43.21
2022-12-18T03:23:14.153Z,45.19
2022-12-18T03:24:14.150Z,46.08
2022-12-18T03:25:14.161Z,45.49
2022-12-18T03:26:14.142Z,47.88
2022-12-18T03:27:14.175Z,50.95
2022-12-18T03:28:14.132Z,46.99
2022-12-18T03:29:14.176Z,43.52
2022-12-18T03:30:14.128Z,43.72
2022-12-18T03:31:14.313Z,45.95
2022-12-18T03:32:14.233Z,47.82
2022-12-18T03:33:14.139Z,46.10
2022-12-18T03:34:14.121Z,44.57
2022-12-18T03:35:14.182Z,46.87
2022-12-18T03:36:14.092Z,46.61
2022-12-18T03:37:14.082Z,45.25
2022-12-18T03:38:14.077Z,46.33
2022-12-18T03:39:14.074Z,49.03
2022-12-18T03:40:14.069Z,47.11
2022-12-18T03:41:14.076Z,46.03
2022-12-18T03:42:14.059Z,45.20
2022-12-18T03:43:14.048Z,45.13
2022-12-18T03:44:14.962Z,46.56
2022-12-18T03:45:14.057Z,47.65
2022-12-18T03:46:14.077Z,48.30
2022-12-18T03:47:14.048Z,45.96
2022-12-18T03:48:14.144Z,44.36
2022-12-18T03:49:14.014Z,46.45
2022-12-18T03:50:15.002Z,46.66
2022-12-18T03:51:14.014Z,45.87
2022-12-18T03:52:14.003Z,43.28
2022-12-18T03:53:14.002Z,43.83
2022-12-18T03:54:13.973Z,44.39
2022-12-18T03:55:14.131Z,44.19
2022-12-18T03:56:13.979Z,44.08
2022-12-18T03:57:13.981Z,45.57
2022-12-18T03:58:13.996Z,47.37
2022-12-18T03:59:13.970Z,45.72
2022-12-18T04:00:13.973Z,45.85
2022-12-18T04:01:14.089Z,48.16
2022-12-18T04:02:14.160Z,50.51
2022-12-18T04:03:13.972Z,46.97
2022-12-18T04:04:14.177Z,45.42
2022-12-18T04:05:13.946Z,47.70
2022-12-18T04:06:13.934Z,47.49
2022-12-18T04:07:13.943Z,46.67
2022-12-18T04:08:13.949Z,46.57
2022-12-18T04:09:13.906Z,46.51
2022-12-18T04:10:13.913Z,48.40
2022-12-18T04:11:13.905Z,45.04
2022-12-18T04:12:13.878Z,45.68
2022-12-18T04:13:13.895Z,47.86
2022-12-18T04:14:17.597Z,50.24
2022-12-18T04:15:13.869Z,45.49
2022-12-18T04:16:13.892Z,44.53
2022-12-18T04:17:13.953Z,44.22
2022-12-18T04:18:13.862Z,46.29
2022-12-18T04:19:13.875Z,45.63
2022-12-18T04:20:13.987Z,47.53
2022-12-18T04:21:13.837Z,48.41
2022-12-18T04:22:18.491Z,47.04
2022-12-18T04:23:15.487Z,46.87
2022-12-18T04:24:13.812Z,47.80
2022-12-18T04:25:13.837Z,45.29
2022-12-18T04:26:13.796Z,47.63
2022-12-18T04:27:13.816Z,45.29
2022-12-18T04:28:13.808Z,47.73
2022-12-18T04:29:13.791Z,52.16
2022-12-18T04:30:13.795Z,50.76
2022-12-18T04:31:13.890Z,49.25
2022-12-18T04:32:35.309Z,48.26
2022-12-18T04:33:13.761Z,48.36
2022-12-18T04:34:13.781Z,49.18
2022-12-18T04:35:13.776Z,47.78
2022-12-18T04:36:13.878Z,49.24
2022-12-18T04:37:16.996Z,49.64
2022-12-18T04:38:13.753Z,49.62
2022-12-18T04:39:13.755Z,49.52
2022-12-18T04:40:13.743Z,49.82
2022-12-18T04:41:13.726Z,53.18
2022-12-18T04:42:13.736Z,55.92
2022-12-18T04:43:13.773Z,47.31
2022-12-18T04:44:13.735Z,46.86
2022-12-18T04:45:13.694Z,48.35
2022-12-18T04:46:13.743Z,46.06
2022-12-18T04:47:13.697Z,46.40
2022-12-18T04:48:13.684Z,49.60
2022-12-18T04:49:13.990Z,46.33
2022-12-18T04:50:13.709Z,48.61
2022-12-18T04:51:13.664Z,44.34
2022-12-18T04:52:13.806Z,45.51
2022-12-18T04:53:13.665Z,46.71
2022-12-18T04:54:13.674Z,47.93
2022-12-18T04:55:13.662Z,48.18
2022-12-18T04:56:13.662Z,45.73
2022-12-18T04:57:13.642Z,45.72
2022-12-18T04:58:13.635Z,45.73
2022-12-18T04:59:13.617Z,47.05
2022-12-18T05:00:13.643Z,44.89
2022-12-18T05:01:13.666Z,45.44
2022-12-18T05:02:13.799Z,45.15
2022-12-18T05:03:13.658Z,46.70
2022-12-18T05:04:13.836Z,50.63
2022-12-18T05:05:13.603Z,47.38
2022-12-18T05:06:13.611Z,46.30
2022-12-18T05:07:13.594Z,44.79
2022-12-18T05:08:13.811Z,43.66
2022-12-18T05:09:13.582Z,45.39
2022-12-18T05:10:13.595Z,48.43
2022-12-18T05:11:13.572Z,47.65
2022-12-18T05:12:13.574Z,46.39
2022-12-18T05:13:13.547Z,45.43
2022-12-18T05:14:14.342Z,46.16
2022-12-18T05:15:13.573Z,45.45
2022-12-18T05:16:13.605Z,46.64
2022-12-18T05:17:13.531Z,45.97
2022-12-18T05:18:13.545Z,45.86
2022-12-18T05:19:13.559Z,47.03
2022-12-18T05:20:13.546Z,47.67
2022-12-18T05:21:13.515Z,48.66
2022-12-18T05:22:13.521Z,47.19
2022-12-18T05:23:13.498Z,46.85
2022-12-18T05:24:13.623Z,46.84
2022-12-18T05:25:13.484Z,45.66
2022-12-18T05:26:13.525Z,46.25
2022-12-18T05:27:13.485Z,46.28
2022-12-18T05:28:13.481Z,45.47
2022-12-18T05:29:13.483Z,45.95
2022-12-18T05:30:13.463Z,44.61
2022-12-18T05:31:13.566Z,45.85
2022-12-18T05:32:13.486Z,46.19
2022-12-18T05:33:13.461Z,46.96
2022-12-18T05:34:13.439Z,45.58
2022-12-18T05:35:13.439Z,46.03
2022-12-18T05:36:13.430Z,51.98
2022-12-18T05:37:13.434Z,50.23
2022-12-18T05:40:39.804Z,48.72
2022-12-18T05:41:39.782Z,46.44
2022-12-18T05:42:39.797Z,49.56
2022-12-18T05:43:40.274Z,47.52
2022-12-18T05:44:39.773Z,48.40
2022-12-18T05:45:39.783Z,46.38
2022-12-18T05:46:39.832Z,46.55
2022-12-18T05:47:39.759Z,45.95
2022-12-18T05:48:39.775Z,48.31
2022-12-18T05:49:39.753Z,46.03
2022-12-18T05:50:39.743Z,45.93
2022-12-18T05:51:39.744Z,45.71
2022-12-18T05:52:39.722Z,48.68
2022-12-18T05:53:40.351Z,45.30
2022-12-18T05:54:39.740Z,46.28
2022-12-18T05:55:39.834Z,49.54
2022-12-18T05:56:42.958Z,48.15
2022-12-18T05:57:40.701Z,46.95
2022-12-18T05:58:39.690Z,45.82
2022-12-18T05:59:39.728Z,46.30
2022-12-18T06:00:39.686Z,47.37
2022-12-18T06:01:39.875Z,48.56
2022-12-18T06:02:39.817Z,46.88
2022-12-18T06:03:40.421Z,46.04
2022-12-18T06:04:39.678Z,47.16
2022-12-18T06:05:39.664Z,49.11
2022-12-18T06:07:03.497Z,46.89
2022-12-18T06:07:39.649Z,48.40
2022-12-18T06:08:45.860Z,46.88
2022-12-18T06:09:39.632Z,47.88
2022-12-18T06:10:39.678Z,46.55
2022-12-18T06:11:39.754Z,47.69
2022-12-18T06:12:39.642Z,46.86
2022-12-18T06:13:40.039Z,50.53
2022-12-18T06:14:39.627Z,48.79
2022-12-18T06:15:39.608Z,49.58
2022-12-18T06:16:39.627Z,50.02
2022-12-18T06:17:39.656Z,51.71
2022-12-18T06:18:39.605Z,46.80
2022-12-18T06:19:39.589Z,47.52
2022-12-18T06:20:39.593Z,50.85
2022-12-18T06:21:39.576Z,48.11
2022-12-18T06:22:39.568Z,48.20
2022-12-18T06:23:39.972Z,48.73
2022-12-18T06:24:39.585Z,48.21
2022-12-18T06:25:39.565Z,46.87
2022-12-18T06:26:39.546Z,47.97
2022-12-18T06:27:39.684Z,50.16
2022-12-18T06:28:39.543Z,53.07
2022-12-18T06:29:39.539Z,51.61
2022-12-18T06:30:39.550Z,49.06
2022-12-18T06:31:39.591Z,49.57
2022-12-18T06:32:39.529Z,48.62
2022-12-18T06:33:39.942Z,49.24
2022-12-18T06:34:39.505Z,47.79
2022-12-18T06:35:39.527Z,49.79
2022-12-18T06:36:39.517Z,51.47
2022-12-18T06:37:39.479Z,49.48
2022-12-18T06:38:39.799Z,47.86
2022-12-18T06:39:39.483Z,49.72
2022-12-18T06:40:39.473Z,48.13
2022-12-18T06:41:39.487Z,48.62
2022-12-18T06:42:46.634Z,49.75
2022-12-18T06:43:39.744Z,49.63
2022-12-18T06:44:39.493Z,49.65
2022-12-18T06:45:39.503Z,46.94
2022-12-18T06:46:39.441Z,48.34
2022-12-18T06:47:39.439Z,49.45
2022-12-18T06:48:39.451Z,49.32
2022-12-18T06:49:54.003Z,50.24
2022-12-18T06:50:39.490Z,49.37
2022-12-18T06:51:39.427Z,49.56
2022-12-18T06:52:39.420Z,49.24
2022-12-18T06:53:39.752Z,48.61
2022-12-18T06:54:39.493Z,49.63
2022-12-18T06:55:39.380Z,48.90
2022-12-18T06:56:50.213Z,47.72
2022-12-18T06:57:39.371Z,47.01
2022-12-18T06:58:39.514Z,48.98
2022-12-18T06:59:39.399Z,49.42
2022-12-18T07:00:39.699Z,48.40
2022-12-18T07:01:39.602Z,47.17
2022-12-18T07:02:39.537Z,50.50
2022-12-18T07:03:39.721Z,52.27
2022-12-18T07:04:39.777Z,51.03
2022-12-18T07:05:39.329Z,49.69
2022-12-18T07:06:39.340Z,52.45
2022-12-18T07:07:39.329Z,51.62
2022-12-18T07:08:39.322Z,49.21
2022-12-18T07:09:39.322Z,50.81
2022-12-18T07:10:44.751Z,51.15
2022-12-18T07:11:40.307Z,48.87
2022-12-18T07:12:39.302Z,49.86
2022-12-18T07:13:39.861Z,50.35
2022-12-18T07:14:39.412Z,49.21
2022-12-18T07:16:26.193Z,52.42
2022-12-18T07:16:39.286Z,50.53
2022-12-18T07:17:39.286Z,50.83
2022-12-18T07:18:39.274Z,49.11
2022-12-18T07:19:39.284Z,52.02
2022-12-18T07:20:39.273Z,50.44
2022-12-18T07:21:39.266Z,52.27
2022-12-18T07:22:39.249Z,50.32
2022-12-18T07:23:39.652Z,52.11
2022-12-18T07:24:39.241Z,54.15
2022-12-18T07:25:39.240Z,51.91
2022-12-18T07:26:39.238Z,50.16
2022-12-18T07:27:39.257Z,49.49
2022-12-18T07:28:39.224Z,50.32
2022-12-18T07:29:39.228Z,52.73
2022-12-18T07:30:39.353Z,52.38
2022-12-18T07:31:39.279Z,51.66
2022-12-18T07:32:39.207Z,50.29
2022-12-18T07:33:39.642Z,51.21
2022-12-18T07:34:39.297Z,50.85
2022-12-18T07:35:39.200Z,50.74
2022-12-18T07:36:39.169Z,51.47
2022-12-18T07:37:39.196Z,50.79
2022-12-18T07:38:39.172Z,53.85
2022-12-18T07:39:39.167Z,50.82
2022-12-18T07:40:39.150Z,51.56
2022-12-18T07:41:42.471Z,52.74
2022-12-18T07:42:39.162Z,50.72
2022-12-18T07:43:39.533Z,51.12
2022-12-18T07:44:39.160Z,50.91
2022-12-18T07:45:39.194Z,51.60
2022-12-18T07:46:39.241Z,49.80
2022-12-18T07:47:39.155Z,52.29
2022-12-18T07:48:39.176Z,50.62
2022-12-18T07:49:39.137Z,51.37
2022-12-18T07:50:39.557Z,52.20
2022-12-18T07:51:39.104Z,48.45
2022-12-18T07:52:39.120Z,52.49
2022-12-18T07:53:39.573Z,51.30
2022-12-18T07:54:39.092Z,52.30
2022-12-18T07:56:05.404Z,51.69
2022-12-18T07:56:40.068Z,48.67
2022-12-18T07:57:50.505Z,49.56
2022-12-18T07:58:40.068Z,51.75
2022-12-18T07:59:39.062Z,51.64
2022-12-18T08:00:39.060Z,50.36
2022-12-18T08:01:39.504Z,50.99
2022-12-18T08:02:39.302Z,49.02
2022-12-18T08:03:39.363Z,53.53
2022-12-18T08:04:39.033Z,54.05
2022-12-18T08:05:39.046Z,51.14
2022-12-18T08:06:40.242Z,49.28
2022-12-18T08:07:39.021Z,52.54
2022-12-18T08:08:39.044Z,54.28
2022-12-18T08:09:39.050Z,53.10
2022-12-18T08:10:38.999Z,54.36
2022-12-18T08:11:39.028Z,54.66
2022-12-18T08:12:38.999Z,51.13
2022-12-18T08:13:39.489Z,52.00
2022-12-18T08:14:38.979Z,53.82
2022-12-18T08:15:39.067Z,53.76
2022-12-18T08:16:39.066Z,53.52
2022-12-18T08:17:38.979Z,51.18
2022-12-18T08:18:39.090Z,51.65
2022-12-18T08:19:38.960Z,53.84
2022-12-18T08:20:38.960Z,54.08
2022-12-18T08:21:38.948Z,51.03
2022-12-18T08:22:38.947Z,52.42
2022-12-18T08:23:42.540Z,51.03
2022-12-18T08:24:38.924Z,52.41
2022-12-18T08:25:38.938Z,53.04
2022-12-18T08:26:38.936Z,53.53
2022-12-18T08:27:38.919Z,52.59
2022-12-18T08:28:38.917Z,50.52
2022-12-18T08:29:38.919Z,52.49
2022-12-18T08:30:38.931Z,52.58
2022-12-18T08:31:38.948Z,53.36
2022-12-18T08:32:38.894Z,53.24
2022-12-18T08:33:39.415Z,51.44
2022-12-18T08:34:39.012Z,49.92
2022-12-18T08:35:45.473Z,51.07
2022-12-18T08:36:39.868Z,51.91
2022-12-18T08:37:38.883Z,50.58
2022-12-18T08:38:38.865Z,51.97
2022-12-18T08:39:38.877Z,51.81
2022-12-18T08:40:38.865Z,51.04
2022-12-18T08:41:38.850Z,50.96
2022-12-18T08:42:39.357Z,51.85
2022-12-18T08:43:39.256Z,54.84
2022-12-18T08:44:38.841Z,56.38
2022-12-18T08:45:38.886Z,54.93
2022-12-18T08:46:38.882Z,54.58
2022-12-18T08:47:38.852Z,54.21
2022-12-18T08:48:38.821Z,53.38
2022-12-18T08:49:38.826Z,55.33
2022-12-18T08:50:38.929Z,56.79
2022-12-18T08:51:38.804Z,53.41
2022-12-18T08:52:40.515Z,55.01
2022-12-18T08:53:39.264Z,50.95
2022-12-18T08:54:39.814Z,52.64
2022-12-18T08:55:38.787Z,53.01
2022-12-18T08:56:38.752Z,53.01
2022-12-18T08:57:38.769Z,52.25
2022-12-18T08:58:38.753Z,53.49
2022-12-18T08:59:38.746Z,51.58
2022-12-18T09:00:38.750Z,51.43
2022-12-18T09:01:38.793Z,53.18
2022-12-18T09:02:38.911Z,51.38
2022-12-18T09:03:39.245Z,52.91
2022-12-18T09:04:38.703Z,52.15
2022-12-18T09:05:38.725Z,52.94
2022-12-18T09:06:38.833Z,53.40
2022-12-18T09:07:38.693Z,54.48
2022-12-18T09:08:39.333Z,52.83
2022-12-18T09:09:38.675Z,54.37
2022-12-18T09:10:43.196Z,52.17
2022-12-18T09:11:38.678Z,52.26
2022-12-18T09:12:38.653Z,54.18
2022-12-18T09:13:39.081Z,52.09
2022-12-18T09:14:38.662Z,53.41
2022-12-18T09:15:38.655Z,54.91
2022-12-18T09:16:38.695Z,54.85
2022-12-18T09:17:38.674Z,54.24
2022-12-18T09:18:39.083Z,53.99
2022-12-18T09:19:38.626Z,54.64
2022-12-18T09:20:38.613Z,54.62
2022-12-18T09:21:40.223Z,53.71
2022-12-18T09:22:38.712Z,54.24
2022-12-18T09:23:38.606Z,54.54
2022-12-18T09:24:38.589Z,55.47
2022-12-18T09:25:38.596Z,55.06
2022-12-18T09:26:38.612Z,54.85
2022-12-18T09:27:38.563Z,54.32
2022-12-18T09:28:38.992Z,53.53
2022-12-18T09:29:38.556Z,54.51
2022-12-18T09:30:38.608Z,52.84
2022-12-18T09:31:38.573Z,52.64
2022-12-18T09:32:38.539Z,56.12
2022-12-18T09:33:38.542Z,52.25
2022-12-18T09:34:38.513Z,52.97
2022-12-18T09:35:38.541Z,52.95
2022-12-18T09:36:38.500Z,52.54
2022-12-18T09:37:38.510Z,52.18
2022-12-18T09:38:39.029Z,51.91
2022-12-18T09:39:38.497Z,51.75
2022-12-18T09:40:38.487Z,55.21
2022-12-18T09:41:38.481Z,53.23
2022-12-18T09:42:38.458Z,53.39
2022-12-18T09:43:38.447Z,54.78
2022-12-18T09:44:44.786Z,53.44
2022-12-18T09:45:39.449Z,53.66
2022-12-18T09:46:38.614Z,54.58
2022-12-18T09:47:38.422Z,53.71
2022-12-18T09:48:38.862Z,54.43
2022-12-18T09:49:38.470Z,54.30
2022-12-18T09:50:38.421Z,53.16
2022-12-18T09:51:38.421Z,54.17
2022-12-18T09:52:38.408Z,54.55
2022-12-18T09:53:38.394Z,54.26
2022-12-18T09:54:38.557Z,54.73
2022-12-18T09:55:38.393Z,52.92
2022-12-18T09:56:38.401Z,53.43
2022-12-18T09:57:38.387Z,53.79
2022-12-18T09:58:38.785Z,55.23
2022-12-18T09:59:38.392Z,55.17
2022-12-18T10:00:38.366Z,56.27
2022-12-18T10:01:44.133Z,55.05
2022-12-18T10:02:39.590Z,54.15
2022-12-18T10:03:38.398Z,54.81
2022-12-18T10:04:38.402Z,55.17
2022-12-18T10:05:38.347Z,54.10
2022-12-18T10:06:38.338Z,53.30
2022-12-18T10:07:38.336Z,53.18
2022-12-18T10:08:38.797Z,55.03
2022-12-18T10:09:38.344Z,54.21
2022-12-18T10:10:38.452Z,53.28
2022-12-18T10:11:38.323Z,52.89
2022-12-18T10:12:38.545Z,53.34
2022-12-18T10:13:38.290Z,54.36
2022-12-18T10:14:38.297Z,53.47
2022-12-18T10:15:38.383Z,54.47
2022-12-18T10:16:38.291Z,55.70
2022-12-18T10:17:38.323Z,55.01
2022-12-18T10:18:38.552Z,55.07
2022-12-18T10:19:38.264Z,54.01
2022-12-18T10:20:38.269Z,54.44
2022-12-18T10:21:38.261Z,54.86
2022-12-18T10:22:38.234Z,56.96
2022-12-18T10:23:39.172Z,56.01
2022-12-18T10:24:38.226Z,54.27
2022-12-18T10:25:38.220Z,55.22
2022-12-18T10:26:38.345Z,55.48
2022-12-18T10:27:38.213Z,54.17
2022-12-18T10:28:38.586Z,55.63
2022-12-18T10:29:38.213Z,55.93
2022-12-18T10:30:38.692Z,59.79
2022-12-18T10:31:38.263Z,55.88
2022-12-18T10:32:38.197Z,56.54
2022-12-18T10:33:38.532Z,57.50
2022-12-18T10:34:38.168Z,55.71
2022-12-18T10:35:38.173Z,57.51
2022-12-18T10:36:38.267Z,55.04
2022-12-18T10:37:38.181Z,56.64
2022-12-18T10:38:38.428Z,57.21
2022-12-18T10:39:38.137Z,56.71
2022-12-18T10:40:38.134Z,56.33
2022-12-18T10:41:38.138Z,56.98
2022-12-18T10:42:38.222Z,56.35
2022-12-18T10:43:38.136Z,55.72
2022-12-18T10:44:38.103Z,57.04
2022-12-18T10:45:38.111Z,56.55
2022-12-18T10:46:38.183Z,56.17
2022-12-18T10:50:04.495Z,57.54
2022-12-18T10:51:12.733Z,56.69
2022-12-18T10:52:05.480Z,57.61
2022-12-18T10:53:04.453Z,57.37
2022-12-18T10:54:04.534Z,56.80
2022-12-18T10:55:04.512Z,57.78
2022-12-18T10:56:04.441Z,56.97
2022-12-18T10:57:04.442Z,56.49
2022-12-18T10:58:04.555Z,56.02
2022-12-18T10:59:04.416Z,57.36
2022-12-18T11:02:31.028Z,55.88
2022-12-18T11:03:30.976Z,57.00
2022-12-18T11:04:30.809Z,56.15
2022-12-18T11:05:30.799Z,55.97
2022-12-18T11:06:30.800Z,56.33
2022-12-18T11:07:30.789Z,54.88
2022-12-18T11:08:30.811Z,56.81
2022-12-18T11:09:30.817Z,56.16
2022-12-18T11:10:30.759Z,55.60
2022-12-18T11:11:30.779Z,55.53
2022-12-18T11:12:30.805Z,56.91
2022-12-18T11:13:30.891Z,57.40
2022-12-18T11:14:30.761Z,55.53
2022-12-18T11:15:30.766Z,56.55
2022-12-18T11:16:30.796Z,56.37
2022-12-18T11:17:30.777Z,58.33
2022-12-18T11:18:30.732Z,57.69
2022-12-18T11:19:30.737Z,57.07
2022-12-18T11:20:30.732Z,56.94
2022-12-18T11:21:30.716Z,55.85
2022-12-18T11:22:30.691Z,55.55
2022-12-18T11:23:30.719Z,56.29
2022-12-18T11:24:30.676Z,55.20
2022-12-18T11:25:33.355Z,56.99
2022-12-18T11:26:30.780Z,55.81
2022-12-18T11:27:30.683Z,55.94
2022-12-18T11:28:30.664Z,56.80
2022-12-18T11:29:30.773Z,56.35
2022-12-18T11:30:30.662Z,55.17
2022-12-18T11:31:30.696Z,55.96
2022-12-18T11:32:30.681Z,56.54
2022-12-18T11:33:30.650Z,57.52
2022-12-18T11:34:30.894Z,56.13
2022-12-18T11:35:30.635Z,55.51
2022-12-18T11:36:30.609Z,57.30
2022-12-18T11:37:30.632Z,56.81
2022-12-18T11:38:30.625Z,56.84
2022-12-18T11:39:30.609Z,56.53
2022-12-18T11:40:30.638Z,57.01
2022-12-18T11:41:30.611Z,59.00
2022-12-18T11:42:30.643Z,58.02
2022-12-18T11:43:30.594Z,58.19
2022-12-18T11:44:30.649Z,58.97
2022-12-18T11:45:30.730Z,57.31
2022-12-18T11:46:30.664Z,56.25
2022-12-18T11:47:30.629Z,56.40
2022-12-18T11:48:30.572Z,56.20
2022-12-18T11:49:30.629Z,55.57
2022-12-18T11:50:30.687Z,55.52
2022-12-18T11:51:30.596Z,56.67
2022-12-18T11:52:30.576Z,56.76
2022-12-18T11:53:31.025Z,55.44
2022-12-18T11:54:30.556Z,56.21
2022-12-18T11:55:30.566Z,55.85
2022-12-18T11:56:30.655Z,56.72
2022-12-18T11:57:30.546Z,55.90
2022-12-18T11:58:31.682Z,56.14
2022-12-18T11:59:30.701Z,55.76
2022-12-18T12:00:30.503Z,56.26
2022-12-18T12:01:45.308Z,55.90
2022-12-18T12:02:30.695Z,57.47
2022-12-18T12:03:30.600Z,57.66
2022-12-18T12:04:30.534Z,58.06
2022-12-18T12:05:30.474Z,57.54
2022-12-18T12:06:30.489Z,57.12
2022-12-18T12:07:30.489Z,56.83
2022-12-18T12:08:30.452Z,58.28
2022-12-18T12:09:30.467Z,58.92
2022-12-18T12:10:30.431Z,58.75
2022-12-18T12:11:30.483Z,58.47
2022-12-18T12:12:30.417Z,57.55
2022-12-18T12:13:30.442Z,57.35
2022-12-18T12:15:13.189Z,57.81
2022-12-18T12:15:51.495Z,64.38
2022-12-18T12:16:30.573Z,57.00
2022-12-18T12:17:30.514Z,57.48
2022-12-18T12:18:30.400Z,57.82
2022-12-18T12:19:30.400Z,55.80
2022-12-18T12:20:34.701Z,59.90
2022-12-18T12:21:30.381Z,56.74
2022-12-18T12:22:30.389Z,56.31
2022-12-18T12:23:30.366Z,57.61
2022-12-18T12:24:30.357Z,56.32
2022-12-18T12:25:30.354Z,58.08
2022-12-18T12:26:30.347Z,55.67
2022-12-18T12:27:30.374Z,57.69
2022-12-18T12:28:30.312Z,56.21
2022-12-18T12:29:30.343Z,56.56
2022-12-18T12:30:30.328Z,57.12
2022-12-18T12:31:30.383Z,56.69
2022-12-18T12:32:30.291Z,57.52
2022-12-18T12:33:30.448Z,56.94
2022-12-18T12:34:30.289Z,57.53
2022-12-18T12:35:30.297Z,56.98
2022-12-18T12:36:30.280Z,59.04
2022-12-18T12:37:30.332Z,57.50
2022-12-18T12:38:30.647Z,57.35
2022-12-18T12:39:30.271Z,56.66
2022-12-18T12:41:31.264Z,59.82
2022-12-18T12:42:51.628Z,57.52
2022-12-18T12:43:30.802Z,57.21
2022-12-18T12:44:30.277Z,57.49
2022-12-18T12:45:30.334Z,55.55
2022-12-18T12:46:37.242Z,55.98
2022-12-18T12:47:30.207Z,57.17
2022-12-18T12:48:30.371Z,56.38
2022-12-18T12:49:31.144Z,56.83
2022-12-18T12:50:30.201Z,57.78
2022-12-18T12:51:37.013Z,57.74
2022-12-18T12:52:31.179Z,59.59
2022-12-18T12:53:30.242Z,59.12
2022-12-18T12:54:30.182Z,58.77
2022-12-18T12:55:30.163Z,57.55
2022-12-18T12:56:30.190Z,56.74
2022-12-18T12:57:30.133Z,58.46
2022-12-18T12:58:30.146Z,57.72
2022-12-18T12:59:30.154Z,56.96
2022-12-18T13:00:30.122Z,56.49
2022-12-18T13:01:30.258Z,57.76
2022-12-18T13:02:30.199Z,58.23
2022-12-18T13:03:30.150Z,57.48
2022-12-18T13:04:30.112Z,56.79
2022-12-18T13:05:30.229Z,57.76